sensor_id;sensor_type;location;lat;lon;timestamp;pressure;altitude;pressure_sealevel;temperature;humidity
1776;BME280;885;42.626;23.200;2022-10-15T00:00:21;157610.59;;;10.44;100.00
1776;BME280;885;42.626;23.200;2022-10-15T00:02:48;157600.28;;;10.40;100.00
1776;BME280;885;42.626;23.200;2022-10-15T00:05:15;157547.38;;;10.19;100.00
1776;BME280;885;42.626;23.200;2022-10-15T00:07:44;157167.09;;;10.15;100.00
1776;BME280;885;42.626;23.200;2022-10-15T00:10:11;157555.09;;;10.22;100.00
1776;BME280;885;42.626;23.200;2022-10-15T00:12:38;157569.31;;;10.28;100.00
1776;BME280;885;42.626;23.200;2022-10-15T00:15:05;157080.81;;;9.82;100.00
1776;BME280;885;42.626;23.200;2022-10-15T00:17:33;157481.50;;;9.94;100.00
1776;BME280;885;42.626;23.200;2022-10-15T00:20:00;157890.16;;;10.09;100.00
1776;BME280;885;42.626;23.200;2022-10-15T00:22:27;157882.38;;;10.06;100.00
1776;BME280;885;42.626;23.200;2022-10-15T00:24:55;157478.94;;;9.93;100.00
1776;BME280;885;42.626;23.200;2022-10-15T00:27:22;157480.22;;;9.93;100.00
1776;BME280;885;42.626;23.200;2022-10-15T00:29:49;157405.38;;;9.64;100.00
1776;BME280;885;42.626;23.200;2022-10-15T00:32:16;157775.03;;;9.64;100.00
1776;BME280;885;42.626;23.200;2022-10-15T00:34:43;157343.50;;;9.40;100.00
1776;BME280;885;42.626;23.200;2022-10-15T00:37:09;158113.63;;;9.52;100.00
1776;BME280;885;42.626;23.200;2022-10-15T00:39:36;158130.50;;;9.58;100.00
1776;BME280;885;42.626;23.200;2022-10-15T00:42:04;158146.03;;;9.65;100.00
1776;BME280;885;42.626;23.200;2022-10-15T00:44:54;158513.16;;;9.63;100.00
1776;BME280;885;42.626;23.200;2022-10-15T00:47:28;158841.25;;;9.47;100.00
1776;BME280;885;42.626;23.200;2022-10-15T00:50:02;159593.75;;;9.52;100.00
1776;BME280;885;42.626;23.200;2022-10-15T00:52:36;159959.56;;;9.51;100.00
1776;BME280;885;42.626;23.200;2022-10-15T00:55:07;160316.25;;;9.46;100.00
1776;BME280;885;42.626;23.200;2022-10-15T00:57:37;161086.25;;;9.57;100.00
1776;BME280;885;42.626;23.200;2022-10-15T01:00:08;161059.84;;;9.47;100.00
1776;BME280;885;42.626;23.200;2022-10-15T01:02:35;161436.34;;;9.50;100.00
1776;BME280;885;42.626;23.200;2022-10-15T01:05:03;161820.84;;;9.55;100.00
1776;BME280;885;42.626;23.200;2022-10-15T01:07:30;162172.25;;;9.48;100.00
1776;BME280;885;42.626;23.200;2022-10-15T01:09:57;162129.66;;;9.32;100.00
1776;BME280;885;42.626;23.200;2022-10-15T01:12:32;162495.53;;;9.31;100.00
1776;BME280;885;42.626;23.200;2022-10-15T01:15:07;163239.41;;;9.32;100.00
1776;BME280;885;42.626;23.200;2022-10-15T01:17:41;163991.53;;;9.37;100.00
1776;BME280;885;42.626;23.200;2022-10-15T01:29:05;164422.31;;;9.59;100.00
1776;BME280;885;42.626;23.200;2022-10-15T01:31:42;164800.72;;;9.63;100.00
1776;BME280;885;42.626;23.200;2022-10-15T01:34:13;165217.13;;;9.80;100.00
1776;BME280;885;42.626;23.200;2022-10-15T01:36:48;165607.94;;;9.87;100.00
1776;BME280;885;42.626;23.200;2022-10-15T01:39:22;165614.75;;;9.90;100.00
1776;BME280;885;42.626;23.200;2022-10-15T01:41:56;165628.38;;;9.95;100.00
1776;BME280;885;42.626;23.200;2022-10-15T01:44:29;165617.44;;;9.91;100.00
1776;BME280;885;42.626;23.200;2022-10-15T01:47:02;165617.44;;;9.91;100.00
1776;BME280;885;42.626;23.200;2022-10-15T01:49:32;165629.69;;;9.95;100.00
1776;BME280;885;42.626;23.200;2022-10-15T01:52:03;165647.38;;;10.02;100.00
1776;BME280;885;42.626;23.200;2022-10-15T01:54:30;165678.72;;;10.13;100.00
1776;BME280;885;42.626;23.200;2022-10-15T01:56:58;165709.97;;;10.25;100.00
1776;BME280;885;42.626;23.200;2022-10-15T01:59:29;165712.72;;;10.26;100.00
1776;BME280;885;42.626;23.200;2022-10-15T02:01:58;165314.81;;;10.16;100.00
1776;BME280;885;42.626;23.200;2022-10-15T02:04:27;165321.59;;;10.18;100.00
1776;BME280;885;42.626;23.200;2022-10-15T02:06:59;165324.34;;;10.19;100.00
1776;BME280;885;42.626;23.200;2022-10-15T02:09:34;165297.16;;;10.09;100.00
1776;BME280;885;42.626;23.200;2022-10-15T02:12:10;164868.34;;;9.88;100.00
1776;BME280;885;42.626;23.200;2022-10-15T02:14:49;165279.53;;;10.03;100.00
1776;BME280;885;42.626;23.200;2022-10-15T02:17:25;165260.50;;;9.96;100.00
1776;BME280;885;42.626;23.200;2022-10-15T02:20:00;165260.50;;;9.96;100.00
1776;BME280;885;42.626;23.200;2022-10-15T02:22:34;164868.34;;;9.88;100.00
1776;BME280;885;42.626;23.200;2022-10-15T02:25:06;164835.91;;;9.76;100.00
1776;BME280;885;42.626;23.200;2022-10-15T02:27:36;164834.53;;;9.75;100.00
1776;BME280;885;42.626;23.200;2022-10-15T02:30:06;164860.22;;;9.85;100.00
1776;BME280;885;42.626;23.200;2022-10-15T02:32:36;165248.31;;;9.91;100.00
1776;BME280;885;42.626;23.200;2022-10-15T02:35:06;164862.94;;;9.86;100.00
1776;BME280;885;42.626;23.200;2022-10-15T02:37:34;164848.09;;;9.80;100.00
1776;BME280;885;42.626;23.200;2022-10-15T02:40:03;165246.94;;;9.91;100.00
1776;BME280;885;42.626;23.200;2022-10-15T02:42:30;164845.34;;;9.79;100.00
1776;BME280;885;42.626;23.200;2022-10-15T02:44:57;164827.75;;;9.73;100.00
1776;BME280;885;42.626;23.200;2022-10-15T02:47:24;164800.72;;;9.63;100.00
1776;BME280;885;42.626;23.200;2022-10-15T02:49:52;164814.25;;;9.68;100.00
1776;BME280;885;42.626;23.200;2022-10-15T02:52:19;165190.00;;;9.70;100.00
1776;BME280;885;42.626;23.200;2022-10-15T02:54:46;165190.00;;;9.70;100.00
1776;BME280;885;42.626;23.200;2022-10-15T02:57:13;165185.91;;;9.68;100.00
1776;BME280;885;42.626;23.200;2022-10-15T02:59:39;165176.44;;;9.65;100.00
1776;BME280;885;42.626;23.200;2022-10-15T03:02:07;165176.44;;;9.65;100.00
1776;BME280;885;42.626;23.200;2022-10-15T03:04:33;165137.13;;;9.50;100.00
1776;BME280;885;42.626;23.200;2022-10-15T03:07:02;165147.97;;;9.54;100.00
1776;BME280;885;42.626;23.200;2022-10-15T03:09:28;165546.78;;;9.65;100.00
1776;BME280;885;42.626;23.200;2022-10-15T03:11:55;165541.34;;;9.63;100.00
1776;BME280;885;42.626;23.200;2022-10-15T03:14:22;165527.72;;;9.57;100.00
1776;BME280;885;42.626;23.200;2022-10-15T03:16:49;165519.59;;;9.54;100.00
1776;BME280;885;42.626;23.200;2022-10-15T03:19:16;165885.81;;;9.53;100.00
1776;BME280;885;42.626;23.200;2022-10-15T03:21:43;165896.75;;;9.57;100.00
1776;BME280;885;42.626;23.200;2022-10-15T03:24:11;166282.13;;;9.63;100.00
1776;BME280;885;42.626;23.200;2022-10-15T03:26:38;166247.97;;;9.50;100.00
1776;BME280;885;42.626;23.200;2022-10-15T03:29:05;166273.91;;;9.59;100.00
1776;BME280;885;42.626;23.200;2022-10-15T03:31:31;166265.75;;;9.56;100.00
1776;BME280;885;42.626;23.200;2022-10-15T03:33:58;166257.53;;;9.53;100.00
1776;BME280;885;42.626;23.200;2022-10-15T03:36:27;166638.84;;;9.57;100.00
1776;BME280;885;42.626;23.200;2022-10-15T03:38:54;166621.03;;;9.51;100.00
1776;BME280;885;42.626;23.200;2022-10-15T03:41:22;166992.81;;;9.51;100.00
1776;BME280;885;42.626;23.200;2022-10-15T03:43:49;167379.75;;;9.57;100.00
1776;BME280;885;42.626;23.200;2022-10-15T03:46:16;167381.13;;;9.58;100.00
1776;BME280;885;42.626;23.200;2022-10-15T03:48:43;167367.38;;;9.53;100.00
1776;BME280;885;42.626;23.200;2022-10-15T03:51:10;167721.31;;;9.47;100.00
1776;BME280;885;42.626;23.200;2022-10-15T03:53:37;167766.78;;;9.63;100.00
1776;BME280;885;42.626;23.200;2022-10-15T03:56:05;167753.03;;;9.58;100.00
1776;BME280;885;42.626;23.200;2022-10-15T03:58:33;167733.72;;;9.51;100.00
1776;BME280;885;42.626;23.200;2022-10-15T04:01:00;167758.53;;;9.60;100.00
1776;BME280;885;42.626;23.200;2022-10-15T04:03:27;167742.00;;;9.54;100.00
1776;BME280;885;42.626;23.200;2022-10-15T04:05:54;167341.25;;;9.43;100.00
1776;BME280;885;42.626;23.200;2022-10-15T04:08:22;167352.25;;;9.47;100.00
1776;BME280;885;42.626;23.200;2022-10-15T04:10:50;167312.41;;;9.33;100.00
1776;BME280;885;42.626;23.200;2022-10-15T04:13:16;167345.38;;;9.45;100.00
1776;BME280;885;42.626;23.200;2022-10-15T04:15:45;167708.94;;;9.42;100.00
1776;BME280;885;42.626;23.200;2022-10-15T04:18:12;167719.97;;;9.46;100.00
1776;BME280;885;42.626;23.200;2022-10-15T04:20:39;167742.00;;;9.54;100.00
1776;BME280;885;42.626;23.200;2022-10-15T04:23:07;167740.72;;;9.53;100.00
1776;BME280;885;42.626;23.200;2022-10-15T04:25:35;167751.81;;;9.57;100.00
1776;BME280;885;42.626;23.200;2022-10-15T04:28:02;167779.34;;;9.67;100.00
1776;BME280;885;42.626;23.200;2022-10-15T04:30:29;167735.22;;;9.51;100.00
1776;BME280;885;42.626;23.200;2022-10-15T04:32:57;167747.63;;;9.55;100.00
1776;BME280;885;42.626;23.200;2022-10-15T04:35:24;167786.25;;;9.70;100.00
1776;BME280;885;42.626;23.200;2022-10-15T04:37:51;167793.09;;;9.72;100.00
1776;BME280;885;42.626;23.200;2022-10-15T04:40:18;167811.03;;;9.79;100.00
1776;BME280;885;42.626;23.200;2022-10-15T04:42:45;167789.00;;;9.71;100.00
1776;BME280;885;42.626;23.200;2022-10-15T04:45:12;167772.47;;;9.65;100.00
1776;BME280;885;42.626;23.200;2022-10-15T04:47:39;167801.41;;;9.75;100.00
1776;BME280;885;42.626;23.200;2022-10-15T04:50:08;167800.00;;;9.75;100.00
1776;BME280;885;42.626;23.200;2022-10-15T04:52:35;167793.09;;;9.72;100.00
1776;BME280;885;42.626;23.200;2022-10-15T04:55:02;167784.88;;;9.69;100.00
1776;BME280;885;42.626;23.200;2022-10-15T04:57:29;167789.00;;;9.71;100.00
1776;BME280;885;42.626;23.200;2022-10-15T04:59:56;167793.09;;;9.72;100.00
1776;BME280;885;42.626;23.200;2022-10-15T05:02:22;167780.75;;;9.68;100.00
1776;BME280;885;42.626;23.200;2022-10-15T05:04:52;167802.78;;;9.76;100.00
1776;BME280;885;42.626;23.200;2022-10-15T05:07:20;167800.00;;;9.75;100.00
1776;BME280;885;42.626;23.200;2022-10-15T05:09:47;167795.88;;;9.73;100.00
1776;BME280;885;42.626;23.200;2022-10-15T05:12:14;167789.00;;;9.71;100.00
1776;BME280;885;42.626;23.200;2022-10-15T05:14:41;167824.84;;;9.84;100.00
1776;BME280;885;42.626;23.200;2022-10-15T05:17:07;167809.66;;;9.78;100.00
1776;BME280;885;42.626;23.200;2022-10-15T05:19:34;167816.53;;;9.81;100.00
1776;BME280;885;42.626;23.200;2022-10-15T05:22:01;167838.59;;;9.89;100.00
1776;BME280;885;42.626;23.200;2022-10-15T05:24:29;167834.47;;;9.87;100.00
1776;BME280;885;42.626;23.200;2022-10-15T05:26:56;167855.19;;;9.95;100.00
1776;BME280;885;42.626;23.200;2022-10-15T05:29:23;167863.44;;;9.98;100.00
1776;BME280;885;42.626;23.200;2022-10-15T05:31:53;167871.72;;;10.01;100.00
1776;BME280;885;42.626;23.200;2022-10-15T05:34:19;167857.91;;;9.96;100.00
1776;BME280;885;42.626;23.200;2022-10-15T05:36:46;167878.56;;;10.03;100.00
1776;BME280;885;42.626;23.200;2022-10-15T05:39:13;167892.38;;;10.08;100.00
1776;BME280;885;42.626;23.200;2022-10-15T05:41:41;167921.38;;;10.19;100.00
1776;BME280;885;42.626;23.200;2022-10-15T05:44:08;167920.00;;;10.18;100.00
1776;BME280;885;42.626;23.200;2022-10-15T05:46:35;167940.72;;;10.26;100.00
1776;BME280;885;42.626;23.200;2022-10-15T05:49:02;167982.03;;;10.41;100.00
1776;BME280;885;42.626;23.200;2022-10-15T05:51:31;167993.13;;;10.45;100.00
1776;BME280;885;42.626;23.200;2022-10-15T05:53:58;167993.13;;;10.45;100.00
1776;BME280;885;42.626;23.200;2022-10-15T05:56:25;168006.88;;;10.50;100.00
1776;BME280;885;42.626;23.200;2022-10-15T05:58:54;168026.22;;;10.57;100.00
1776;BME280;885;42.626;23.200;2022-10-15T06:01:21;168066.19;;;10.72;100.00
1776;BME280;885;42.626;23.200;2022-10-15T06:03:47;168055.16;;;10.68;100.00
1776;BME280;885;42.626;23.200;2022-10-15T06:06:15;168092.38;;;10.81;100.00
1776;BME280;885;42.626;23.200;2022-10-15T06:08:43;168095.16;;;10.82;100.00
1776;BME280;885;42.626;23.200;2022-10-15T06:11:10;168013.78;;;10.53;100.00
1776;BME280;885;42.626;23.200;2022-10-15T06:13:38;168028.94;;;10.58;100.00
1776;BME280;885;42.626;23.200;2022-10-15T06:16:07;168024.81;;;10.57;100.00
1776;BME280;885;42.626;23.200;2022-10-15T06:18:34;168049.66;;;10.66;100.00
1776;BME280;885;42.626;23.200;2022-10-15T06:21:01;168073.09;;;10.74;100.00
1776;BME280;885;42.626;23.200;2022-10-15T06:23:28;168057.91;;;10.69;100.00
1776;BME280;885;42.626;23.200;2022-10-15T06:25:55;168048.25;;;10.65;100.00
1776;BME280;885;42.626;23.200;2022-10-15T06:28:22;168088.25;;;10.80;100.00
1776;BME280;885;42.626;23.200;2022-10-15T06:30:48;168104.81;;;10.86;100.00
1776;BME280;885;42.626;23.200;2022-10-15T06:33:17;168096.56;;;10.83;100.00
1776;BME280;885;42.626;23.200;2022-10-15T06:35:43;168075.84;;;10.75;100.00
1776;BME280;885;42.626;23.200;2022-10-15T06:38:10;168053.78;;;10.67;100.00
1776;BME280;885;42.626;23.200;2022-10-15T06:40:37;168062.06;;;10.70;100.00
1776;BME280;885;42.626;23.200;2022-10-15T06:43:04;168012.41;;;10.52;100.00
1776;BME280;885;42.626;23.200;2022-10-15T06:45:32;168063.41;;;10.71;100.00
1776;BME280;885;42.626;23.200;2022-10-15T06:48:01;168074.44;;;10.75;100.00
1776;BME280;885;42.626;23.200;2022-10-15T06:50:30;168052.38;;;10.67;100.00
1776;BME280;885;42.626;23.200;2022-10-15T06:52:57;168102.06;;;10.85;100.00
1776;BME280;885;42.626;23.200;2022-10-15T06:55:24;168102.06;;;10.85;100.00
1776;BME280;885;42.626;23.200;2022-10-15T06:57:53;168133.78;;;10.96;100.00
1776;BME280;885;42.626;23.200;2022-10-15T07:00:20;168115.84;;;10.90;100.00
1776;BME280;885;42.626;23.200;2022-10-15T07:02:47;168157.25;;;11.05;100.00
1776;BME280;885;42.626;23.200;2022-10-15T07:05:14;168146.22;;;11.01;100.00
1776;BME280;885;42.626;23.200;2022-10-15T07:07:42;168158.63;;;11.05;100.00
1776;BME280;885;42.626;23.200;2022-10-15T07:10:09;168227.63;;;11.31;100.00
1776;BME280;885;42.626;23.200;2022-10-15T07:12:35;168292.44;;;11.54;100.00
1776;BME280;885;42.626;23.200;2022-10-15T07:15:06;168297.97;;;11.56;100.00
1776;BME280;885;42.626;23.200;2022-10-15T07:17:33;168303.50;;;11.58;100.00
1776;BME280;885;42.626;23.200;2022-10-15T07:20:00;168339.44;;;11.71;100.00
1776;BME280;885;42.626;23.200;2022-10-15T07:22:27;168364.31;;;11.80;100.00
1776;BME280;885;42.626;23.200;2022-10-15T07:24:55;168397.44;;;11.92;100.00
1776;BME280;885;42.626;23.200;2022-10-15T07:27:22;168462.34;;;12.16;100.00
1776;BME280;885;42.626;23.200;2022-10-15T07:29:49;168532.78;;;12.42;100.00
1776;BME280;885;42.626;23.200;2022-10-15T07:32:16;168513.44;;;12.35;100.00
1776;BME280;885;42.626;23.200;2022-10-15T07:34:42;168467.69;;;12.19;100.00
1776;BME280;885;42.626;23.200;2022-10-15T07:37:09;168520.34;;;12.37;100.00
1776;BME280;885;42.626;23.200;2022-10-15T07:39:36;168482.91;;;12.25;100.00
1776;BME280;885;42.626;23.200;2022-10-15T07:42:04;168460.81;;;12.17;100.00
1776;BME280;885;42.626;23.200;2022-10-15T07:44:31;168456.66;;;12.15;100.00
1776;BME280;885;42.626;23.200;2022-10-15T07:46:58;168498.09;;;12.30;100.00
1776;BME280;885;42.626;23.200;2022-10-15T07:49:25;168572.66;;;12.57;100.00
1776;BME280;885;42.626;23.200;2022-10-15T07:51:52;168585.09;;;12.62;99.08
1776;BME280;885;42.626;23.200;2022-10-15T07:54:18;168688.72;;;13.00;98.75
1776;BME280;885;42.626;23.200;2022-10-15T07:56:45;168652.78;;;12.87;99.92
1776;BME280;885;42.626;23.200;2022-10-15T07:59:13;168691.44;;;13.01;97.03
1776;BME280;885;42.626;23.200;2022-10-15T08:01:40;168716.38;;;13.10;96.13
1776;BME280;885;42.626;23.200;2022-10-15T08:04:07;168773.03;;;13.30;96.19
1776;BME280;885;42.626;23.200;2022-10-15T08:06:34;168820.03;;;13.47;94.85
1776;BME280;885;42.626;23.200;2022-10-15T08:09:03;168854.59;;;13.60;92.75
1776;BME280;885;42.626;23.200;2022-10-15T08:11:30;168904.34;;;13.78;91.90
1776;BME280;885;42.626;23.200;2022-10-15T08:13:56;169040.00;;;14.26;91.86
1776;BME280;885;42.626;23.200;2022-10-15T08:16:25;168995.75;;;14.10;91.26
1776;BME280;885;42.626;23.200;2022-10-15T08:18:51;169024.81;;;14.21;90.74
1776;BME280;885;42.626;23.200;2022-10-15T08:21:18;169084.34;;;14.43;89.90
1776;BME280;885;42.626;23.200;2022-10-15T08:23:45;169174.25;;;14.75;87.98
1776;BME280;885;42.626;23.200;2022-10-15T08:26:12;169156.25;;;14.69;87.73
1776;BME280;885;42.626;23.200;2022-10-15T08:28:39;169186.53;;;14.81;84.74
1776;BME280;885;42.626;23.200;2022-10-15T08:31:05;169218.38;;;14.92;83.96
1776;BME280;885;42.626;23.200;2022-10-15T08:33:34;169289.09;;;15.17;83.56
1776;BME280;885;42.626;23.200;2022-10-15T08:36:03;169354.16;;;15.41;82.69
1776;BME280;885;42.626;23.200;2022-10-15T08:38:31;169361.13;;;15.43;83.53
1776;BME280;885;42.626;23.200;2022-10-15T08:40:59;169301.41;;;15.23;82.63
1776;BME280;885;42.626;23.200;2022-10-15T08:43:30;169370.81;;;15.47;84.22
1776;BME280;885;42.626;23.200;2022-10-15T08:46:02;169402.63;;;15.58;81.40
1776;BME280;885;42.626;23.200;2022-10-15T08:48:32;169342.91;;;15.38;81.21
1776;BME280;885;42.626;23.200;2022-10-15T08:51:04;169344.28;;;15.38;80.97
1776;BME280;885;42.626;23.200;2022-10-15T08:53:36;169369.28;;;15.47;80.31
1776;BME280;885;42.626;23.200;2022-10-15T08:56:12;169405.28;;;15.60;79.50
1776;BME280;885;42.626;23.200;2022-10-15T08:58:45;169370.66;;;15.48;79.98
1776;BME280;885;42.626;23.200;2022-10-15T09:01:22;169468.91;;;15.83;79.76
1776;BME280;885;42.626;23.200;2022-10-15T09:03:57;169480.03;;;15.87;77.80
1776;BME280;885;42.626;23.200;2022-10-15T09:06:32;169574.16;;;16.22;75.48
1776;BME280;885;42.626;23.200;2022-10-15T09:09:06;169610.19;;;16.35;74.16
1776;BME280;885;42.626;23.200;2022-10-15T09:11:43;169637.88;;;16.45;74.99
1776;BME280;885;42.626;23.200;2022-10-15T09:14:17;169696.09;;;16.66;74.18
1776;BME280;885;42.626;23.200;2022-10-15T09:16:47;169793.25;;;17.00;73.39
1776;BME280;885;42.626;23.200;2022-10-15T09:19:17;169768.19;;;16.92;72.85
1776;BME280;885;42.626;23.200;2022-10-15T09:21:46;169762.63;;;16.90;71.31
1776;BME280;885;42.626;23.200;2022-10-15T09:24:18;169786.16;;;16.99;71.27
1776;BME280;885;42.626;23.200;2022-10-15T09:26:52;169773.72;;;16.94;71.83
1776;BME280;885;42.626;23.200;2022-10-15T09:29:26;169728.00;;;16.78;70.82
1776;BME280;885;42.626;23.200;2022-10-15T09:32:04;169859.63;;;17.25;70.32
1776;BME280;885;42.626;23.200;2022-10-15T09:34:38;169895.63;;;17.38;68.36
1776;BME280;885;42.626;23.200;2022-10-15T09:37:14;169885.94;;;17.35;67.98
1776;BME280;885;42.626;23.200;2022-10-15T09:39:54;169974.72;;;17.67;67.28
1776;BME280;885;42.626;23.200;2022-10-15T09:42:27;170007.97;;;17.79;65.16
1776;BME280;885;42.626;23.200;2022-10-15T09:44:58;169978.84;;;17.69;64.49
1776;BME280;885;42.626;23.200;2022-10-15T09:47:28;169513.31;;;17.36;65.55
1776;BME280;885;42.626;23.200;2022-10-15T09:49:55;169926.19;;;17.50;66.33
1776;BME280;885;42.626;23.200;2022-10-15T09:52:34;170037.09;;;17.90;65.08
1776;BME280;885;42.626;23.200;2022-10-15T09:55:11;170128.59;;;18.23;62.62
1776;BME280;885;42.626;23.200;2022-10-15T09:57:44;170113.38;;;18.17;61.96
1776;BME280;885;42.626;23.200;2022-10-15T10:00:13;169661.34;;;17.90;62.70
1776;BME280;885;42.626;23.200;2022-10-15T10:02:40;169197.28;;;17.58;63.01
1776;BME280;885;42.626;23.200;2022-10-15T10:05:26;169081.41;;;17.15;64.42
1776;BME280;885;42.626;23.200;2022-10-15T10:08:08;168580.94;;;16.69;67.09
1776;BME280;885;42.626;23.200;2022-10-15T10:10:37;168507.97;;;16.43;68.20
1776;BME280;885;42.626;23.200;2022-10-15T10:13:21;168017.97;;;16.01;70.47
1776;BME280;885;42.626;23.200;2022-10-15T10:15:50;167967.22;;;15.82;70.30
1776;BME280;885;42.626;23.200;2022-10-15T10:18:20;167566.94;;;15.72;70.10
1776;BME280;885;42.626;23.200;2022-10-15T10:20:55;167151.78;;;15.57;69.28
1776;BME280;885;42.626;23.200;2022-10-15T10:23:28;167506.72;;;15.50;70.41
1776;BME280;885;42.626;23.200;2022-10-15T10:25:57;167079.38;;;15.31;72.36
1776;BME280;885;42.626;23.200;2022-10-15T10:28:30;167061.63;;;15.24;71.82
1776;BME280;885;42.626;23.200;2022-10-15T10:31:04;166642.84;;;15.07;71.41
1776;BME280;885;42.626;23.200;2022-10-15T10:33:35;167067.09;;;15.26;71.92
1776;BME280;885;42.626;23.200;2022-10-15T10:36:04;167030.22;;;15.12;71.76
1776;BME280;885;42.626;23.200;2022-10-15T10:38:35;167053.41;;;15.21;72.20
1776;BME280;885;42.626;23.200;2022-10-15T10:41:04;167028.91;;;15.12;73.69
1776;BME280;885;42.626;23.200;2022-10-15T10:43:33;167016.59;;;15.07;72.60
1776;BME280;885;42.626;23.200;2022-10-15T10:46:02;167019.31;;;15.08;72.42
1776;BME280;885;42.626;23.200;2022-10-15T10:48:37;167065.72;;;15.26;71.74
1776;BME280;885;42.626;23.200;2022-10-15T10:51:08;167490.28;;;15.44;72.42
1776;BME280;885;42.626;23.200;2022-10-15T10:53:45;167106.69;;;15.41;72.37
1776;BME280;885;42.626;23.200;2022-10-15T10:56:13;167528.59;;;15.58;70.51
1776;BME280;885;42.626;23.200;2022-10-15T10:58:44;167143.56;;;15.54;70.01
1776;BME280;885;42.626;23.200;2022-10-15T11:01:12;167113.56;;;15.43;69.23
1776;BME280;885;42.626;23.200;2022-10-15T11:03:41;167080.72;;;15.31;71.05
1776;BME280;885;42.626;23.200;2022-10-15T11:06:32;167114.91;;;15.44;70.08
1776;BME280;885;42.626;23.200;2022-10-15T11:09:12;167087.56;;;15.34;71.06
1776;BME280;885;42.626;23.200;2022-10-15T11:11:47;166685.03;;;15.23;70.74
1776;BME280;885;42.626;23.200;2022-10-15T11:14:23;167049.34;;;15.20;72.67
1776;BME280;885;42.626;23.200;2022-10-15T11:16:58;166691.84;;;15.26;70.42
1776;BME280;885;42.626;23.200;2022-10-15T11:19:33;166670.06;;;15.18;71.63
1776;BME280;885;42.626;23.200;2022-10-15T11:22:17;166685.03;;;15.23;70.24
1776;BME280;885;42.626;23.200;2022-10-15T11:24:57;166697.28;;;15.28;69.66
1776;BME280;885;42.626;23.200;2022-10-15T11:27:42;166679.56;;;15.21;70.15
1776;BME280;885;42.626;23.200;2022-10-15T11:30:33;166698.66;;;15.28;71.01
1776;BME280;885;42.626;23.200;2022-10-15T11:33:15;166661.88;;;15.14;72.56
1776;BME280;885;42.626;23.200;2022-10-15T11:35:48;167083.47;;;15.32;72.94
1776;BME280;885;42.626;23.200;2022-10-15T11:38:24;167050.72;;;15.20;73.83
1776;BME280;885;42.626;23.200;2022-10-15T11:41:08;167114.91;;;15.44;71.44
1776;BME280;885;42.626;23.200;2022-10-15T11:43:54;166725.88;;;15.38;70.15
1776;BME280;885;42.626;23.200;2022-10-15T11:46:27;167116.25;;;15.44;70.94
1776;BME280;885;42.626;23.200;2022-10-15T11:49:05;167127.19;;;15.48;70.49
1776;BME280;885;42.626;23.200;2022-10-15T11:51:49;167155.84;;;15.59;68.23
1776;BME280;885;42.626;23.200;2022-10-15T11:54:27;167135.41;;;15.51;69.89
1776;BME280;885;42.626;23.200;2022-10-15T11:56:59;166724.50;;;15.38;69.49
1776;BME280;885;42.626;23.200;2022-10-15T11:59:32;166671.44;;;15.18;69.84
1776;BME280;885;42.626;23.200;2022-10-15T12:02:05;167105.31;;;15.40;72.11
1776;BME280;885;42.626;23.200;2022-10-15T12:04:39;166709.53;;;15.32;70.59
1776;BME280;885;42.626;23.200;2022-10-15T12:07:12;167108.06;;;15.41;72.58
1776;BME280;885;42.626;23.200;2022-10-15T12:09:47;166719.06;;;15.36;70.96
1776;BME280;885;42.626;23.200;2022-10-15T12:12:26;166750.47;;;15.47;69.54
1776;BME280;885;42.626;23.200;2022-10-15T12:15:14;166766.81;;;15.53;68.08
1776;BME280;885;42.626;23.200;2022-10-15T12:17:49;167192.75;;;15.72;67.51
1776;BME280;885;42.626;23.200;2022-10-15T12:20:19;167225.50;;;15.84;66.80
1776;BME280;885;42.626;23.200;2022-10-15T12:22:55;167299.25;;;16.12;66.32
1776;BME280;885;42.626;23.200;2022-10-15T12:25:41;167728.44;;;16.32;65.36
1776;BME280;885;42.626;23.200;2022-10-15T12:28:18;168195.06;;;16.65;66.78
1776;BME280;885;42.626;23.200;2022-10-15T12:30:59;168787.34;;;17.45;64.12
1776;BME280;885;42.626;23.200;2022-10-15T12:33:35;168821.81;;;17.58;62.03
1776;BME280;885;42.626;23.200;2022-10-15T12:36:05;168761.22;;;17.35;63.95
1776;BME280;885;42.626;23.200;2022-10-15T12:38:37;168812.19;;;17.54;63.25
1776;BME280;885;42.626;23.200;2022-10-15T12:41:07;168292.53;;;17.01;64.25
1776;BME280;885;42.626;23.200;2022-10-15T12:43:39;167862.72;;;16.81;64.36
1776;BME280;885;42.626;23.200;2022-10-15T12:46:08;168244.50;;;16.84;65.91
1776;BME280;885;42.626;23.200;2022-10-15T12:48:38;167816.13;;;16.64;65.39
1776;BME280;885;42.626;23.200;2022-10-15T12:53:59;168326.84;;;17.14;64.16
1776;BME280;885;42.626;23.200;2022-10-15T12:56:37;168835.59;;;17.63;62.34
1776;BME280;885;42.626;23.200;2022-10-15T13:02:32;168915.47;;;17.92;61.50
1776;BME280;885;42.626;23.200;2022-10-15T13:05:01;169469.28;;;18.57;59.73
1776;BME280;885;42.626;23.200;2022-10-15T13:07:29;170012.91;;;19.18;58.12
1776;BME280;885;42.626;23.200;2022-10-15T13:09:58;170533.88;;;19.70;56.87
1776;BME280;885;42.626;23.200;2022-10-15T13:12:27;170194.34;;;19.83;54.98
1776;BME280;885;42.626;23.200;2022-10-15T13:14:58;170704.66;;;20.32;54.96
1776;BME280;885;42.626;23.200;2022-10-15T13:17:28;170839.41;;;20.81;52.59
1776;BME280;885;42.626;23.200;2022-10-15T13:20:00;170883.84;;;20.97;52.06
1776;BME280;885;42.626;23.200;2022-10-15T13:22:30;170450.75;;;20.77;51.41
1776;BME280;885;42.626;23.200;2022-10-15T13:24:57;169857.53;;;19.98;52.37
1776;BME280;885;42.626;23.200;2022-10-15T13:27:27;169374.34;;;19.59;52.78
1776;BME280;885;42.626;23.200;2022-10-15T13:29:57;170338.53;;;20.36;52.44
1776;BME280;885;42.626;23.200;2022-10-15T13:32:25;169911.41;;;20.18;52.50
1776;BME280;885;42.626;23.200;2022-10-15T13:34:53;169430.88;;;19.80;53.67
1776;BME280;885;42.626;23.200;2022-10-15T13:37:28;169828.50;;;19.88;54.39